CheckWX is a tool to help pilots better visualize weather data.  It is not intended as a substitute for an official pre-flight weather briefing.

17:07:42 UTC

KSMP METAR
Stampede Pass Airport
Washington, USA
Current

1 hour ago

KSMP 201556Z AUTO VRB05KT 10SM CLR M06/M08 A3023 RMK AO2 SLP278 T10561083
Observed
Feb-20 @ 15:56 UTC
Wind
  • Variable at 5 KTS
Visibility
10 SM
Flight Rules
VFR
Cloud Levels
  • Clear skies
Temperature
-6°C / 21°F
Dewpoint
-8°C / 18°F
Humidity
86%
Altimeter
30.23" Hg
Pressure
1023.72 hPa
Previous

2 hours ago

KSMP 201456Z AUTO 06008KT 020V100 10SM CLR M05/M08 A3021 RMK AO2 SLP268 T10501083 58002
Observed
Feb-20 @ 14:56 UTC
Wind
  • 060° at 8 KTS
Visibility
10 SM
Flight Rules
VFR
Cloud Levels
  • Clear skies
Temperature
-5°C / 23°F
Dewpoint
-8°C / 18°F
Humidity
80%
Altimeter
30.21" Hg
Pressure
1023.02 hPa
Previous

3 hours ago

KSMP 201356Z AUTO VRB06KT 10SM CLR M05/M08 A3021 RMK AO2 SLP269 T10501083
Observed
Feb-20 @ 13:56 UTC
Wind
  • Variable at 6 KTS
Visibility
10 SM
Flight Rules
VFR
Cloud Levels
  • Clear skies
Temperature
-5°C / 23°F
Dewpoint
-8°C / 18°F
Humidity
80%
Altimeter
30.21" Hg
Pressure
1023.02 hPa